Flight Track Log - Related Links

Times and Time Zones

All times are in EDT time to prevent confusion due to time zone crossing. See the SKW6534 flight status page for this flight to view local times or setup timezone preferences in your user account.

Time Position Orientation Groundspeed Altitude Reporting Facility
EDT Latitude Longitude Course Direction KTS MPH feet Rate Location/Type
Sun 03:10:10 PM 43.4728 -112.0292 119° Southeast 243 280 7,400  Level Salt Lake Center
Sun 03:11:11 PM 43.4497 -111.9344 109° East 236 272 10,600 2,878 Climbing Salt Lake Center
Sun 03:12:00 PM 43.2181 -111.5193 127° Southeast  Level FlightAware Approximate
Sun 03:12:13 PM 43.4056 -111.8500 126° Southeast 266 306 13,300  Level Salt Lake Center
Sun 03:13:00 PM 43.1519 -111.3978 127° Southeast  Level FlightAware Approximate
Sun 03:13:15 PM 43.3481 -111.7428 126° Southeast 302 348 16,100  Level Salt Lake Center
Sun 03:14:00 PM 43.0893 -111.2730 122° Southeast  Level FlightAware Approximate
Sun 03:14:17 PM 43.2956 -111.6472 127° Southeast 317 365 17,900  Level Salt Lake Center
Sun 03:15:18 PM 43.2272 -111.5228 127° Southeast 350 403 19,400 1,610 Climbing Salt Lake Center
Sun 03:16:20 PM 43.1636 -111.4061 127° Southeast 381 438 21,200 1,500 Climbing Salt Lake Center
Sun 03:17:22 PM 43.0869 -111.2619 126° Southeast 404 465 22,500 1,355 Climbing Salt Lake Center
Sun 03:18:24 PM 43.0189 -111.1364 127° Southeast 423 487 24,000 1,512 Climbing Salt Lake Center
Sun 03:19:25 PM 42.9483 -111.0092 127° Southeast 434 499 25,600 1,561 Climbing Salt Lake Center
Sun 03:20:27 PM 42.8683 -110.8592 126° Southeast 438 504 27,200 1,306 Climbing Salt Lake Center
Sun 03:21:29 PM 42.7972 -110.7372 128° Southeast 433 498 28,300 1,065 Climbing Salt Lake Center
Sun 03:22:31 PM 42.7133 -110.5867 127° Southeast 442 509 29,400 1,073 Climbing Salt Lake Center
Sun 03:23:32 PM 42.6417 -110.4592 127° Southeast 443 510 30,500 976 Climbing Salt Lake Center
Sun 03:24:34 PM 42.5575 -110.3086 127° Southeast 449 517 31,400 726 Climbing Salt Lake Center
Sun 03:25:36 PM 42.4836 -110.1772 127° Southeast 455 524 32,000 581 Climbing Salt Lake Center
Sun 03:26:38 PM 42.4092 -110.0447 127° Southeast 461 531 32,600 488 Climbing Salt Lake Center
Sun 03:27:39 PM 42.3186 -109.8869 128° Southeast 471 542 33,000 195 Climbing Salt Lake Center
Sun 03:28:41 PM 42.2383 -109.7472 128° Southeast 485 558 33,000  Level Salt Lake Center
Sun 03:29:43 PM 42.1422 -109.5786 128° Southeast 504 580 33,000  Level Salt Lake Center
Sun 03:30:44 PM 42.0586 -109.4328 128° Southeast 512 589 33,000  Level Salt Lake Center
Sun 03:31:46 PM 41.9608 -109.2644 128° Southeast 511 588 33,000  Level Salt Lake Center
Sun 03:32:48 PM 41.8767 -109.1200 128° Southeast 511 588 33,000  Level Salt Lake Center
Sun 03:33:49 PM 41.7931 -108.9758 128° Southeast 508 585 33,000  Level Salt Lake Center
Sun 03:34:51 PM 41.6947 -108.8097 128° Southeast 505 581 33,000  Level Salt Lake Center
Sun 03:35:53 PM 41.6219 -108.6578 123° Southeast 506 582 33,000  Level Salt Lake Center
Sun 03:36:54 PM 41.5617 -108.4967 117° Southeast 504 580 33,000  Level Salt Lake Center
Sun 03:37:56 PM 41.4911 -108.3103 117° Southeast 503 579 33,000  Level Salt Lake Center
Sun 03:38:58 PM 41.4311 -108.1511 117° Southeast 503 579 33,000  Level Salt Lake Center
Sun 03:39:29 PM 41.3997 -108.0711 118° Southeast 500 575 33,000  Level Denver Center
Sun 03:39:59 PM 41.3611 -107.9661 116° Southeast 501 577 33,000  Level Salt Lake Center
Sun 03:41:01 PM 41.3000 -107.8067 117° Southeast 503 579 33,000  Level Salt Lake Center
Sun 03:41:32 PM 41.2694 -107.7275 117° Southeast 503 579 33,000  Level Denver Center
Sun 03:42:34 PM 41.1986 -107.5456 117° Southeast 499 574 33,000  Level Denver Center
Sun 03:43:36 PM 41.1383 -107.3875 117° Southeast 500 575 33,000  Level Denver Center
Sun 03:44:38 PM 41.0672 -107.2050 117° Southeast 498 573 33,000  Level Denver Center
Sun 03:45:40 PM 41.0069 -107.0500 117° Southeast 495 570 33,000  Level Denver Center
Sun 03:47:44 PM 40.8750 -106.7169 118° Southeast 494 568 33,000  Level Denver Center
Sun 03:48:46 PM 40.8036 -106.5389 118° Southeast 492 566 33,000  Level Denver Center
Sun 03:49:48 PM 40.7397 -106.3786 118° Southeast 494 568 33,000 -726 Level Denver Center
Sun 03:50:50 PM 40.6786 -106.2258 118° Southeast 493 567 31,500 -2,468 Descending Denver Center
Sun 03:51:52 PM 40.6053 -106.0447 118° Southeast 495 570 27,900 -3,366 Descending Denver Center
Sun 03:52:53 PM 40.5389 -105.8819 118° Southeast 499 574 24,600 -3,220 Descending Denver Center
Sun 03:53:55 PM 40.4747 -105.7267 118° Southeast 483 556 21,300 -2,710 Descending Denver Center
Sun 03:54:57 PM 40.4153 -105.5844 119° Southeast 445 512 19,000 -1,500 Descending Denver Center
Sun 03:55:59 PM 40.3731 -105.4533 113° Southeast 372 428 18,200 -1,065 Descending Denver Center
Sun 03:57:01 PM 40.3803 -105.3297 86° East 343 395 16,800 -1,355 Descending Denver Center
Sun 03:58:03 PM 40.3869 -105.2025 86° East 328 377 15,400 -1,210 Descending Denver Center
Sun 03:59:05 PM 40.3928 -105.0975 86° East 291 335 14,300 -1,065 Descending Denver Center
Sun 04:00:07 PM 40.3783 -105.0022 101° East 275 316 13,200 -732 Descending Denver Center
Sun 04:01:08 PM 40.3408 -104.9103 118° Southeast 269 310 12,800 -878 Descending Denver Center
Sun 04:02:10 PM 40.2925 -104.8422 133° Southeast 258 297 11,400 -1,065 Descending Denver Center
Sun 04:03:12 PM 40.2389 -104.7708 135° Southeast 256 295 10,600 -629 Descending Denver Center
Sun 04:04:14 PM 40.1822 -104.7239 148° Southeast 241 277 10,100 -629 Descending Denver Center
Sun 04:05:16 PM 40.1211 -104.6833 153° Southeast 245 282 9,300 -823 Descending Denver Center
Sun 04:06:18 PM 40.0486 -104.6853 181° South 245 282 8,400 -871 Descending Denver Center

Login

Don't have an account? Register now (free) for customized features, flight alerts, and more!